Flight Track Log - Related Links

Times and Time Zones

All times are in EDT time to prevent confusion due to time zone crossing. See the ASQ4111 flight status page for this flight to view local times or setup timezone preferences in your user account.

Time Position Orientation Groundspeed Altitude Reporting Facility
EDT Latitude Longitude Course Direction KTS MPH feet Rate Location/Type
Wed 05:37:31 PM 32.8661 -79.9917 77° East 192 221 3,900  Level Jacksonville Center
Wed 05:38:31 PM 32.9150 -79.9456 38° Northeast 180 207 6,200 2,370 Climbing Jacksonville Center
Wed 05:39:00 PM 33.2345 -79.9298 North  Level FlightAware Approximate
Wed 05:39:30 PM 32.9614 -79.8747 52° Northeast 226 260 8,600  Level Jacksonville Center
Wed 05:40:00 PM 33.3226 -79.9054 23° Northeast  Level FlightAware Approximate
Wed 05:40:31 PM 33.0078 -79.8036 52° Northeast 259 298 10,800  Level Jacksonville Center
Wed 05:41:00 PM 33.4093 -79.8748 North  Level FlightAware Approximate
Wed 05:41:31 PM 33.0794 -79.7542 30° Northeast 272 313 13,000  Level Jacksonville Center
Wed 05:42:31 PM 33.1472 -79.7119 28° Northeast 278 320 15,100 2,100 Climbing Jacksonville Center
Wed 05:43:31 PM 33.1575 -79.6200 82° East 253 291 17,200 1,900 Climbing Jacksonville Center
Wed 05:44:31 PM 33.1572 -79.5281 90° East 253 291 18,900 1,600 Climbing Jacksonville Center
Wed 05:45:31 PM 33.1567 -79.4314 90° East 273 314 20,400 1,450 Climbing Jacksonville Center
Wed 05:46:31 PM 33.1683 -79.3292 82° East 293 337 21,800 1,311 Climbing Jacksonville Center
Wed 05:47:30 PM 33.1778 -79.2222 84° East 309 356 23,000 605 Climbing Jacksonville Center
Wed 05:48:30 PM 33.2144 -79.1164 67° East 320 368 23,000 99 Level Jacksonville Center
Wed 05:49:31 PM 33.3039 -79.0431 34° Northeast 350 403 23,200 645 Climbing Jacksonville Center
Wed 05:50:31 PM 33.3894 -78.9722 35° Northeast 354 407 24,300 900 Climbing Jacksonville Center
Wed 05:51:31 PM 33.4169 -78.8514 75° East 349 402 25,000 900 Climbing Jacksonville Center
Wed 05:52:31 PM 33.4783 -78.7517 54° Northeast 354 407 26,100 1,550 Climbing Jacksonville Center
Wed 05:53:31 PM 33.5442 -78.6564 50° Northeast 361 415 28,100 1,600 Climbing Jacksonville Center
Wed 05:54:31 PM 33.6097 -78.5633 50° Northeast 367 422 29,300 1,109 Climbing Jacksonville Center
Wed 05:55:30 PM 33.7089 -78.5336 14° North 344 396 30,300 1,096 Climbing Jacksonville Center
Wed 05:57:59 PM 33.9803 -78.4869 North 373 429 33,100 1,091 Climbing Washington Center
Wed 05:58:59 PM 34.0872 -78.4681 North 379 436 34,100 934 Climbing Washington Center
Wed 06:00:01 PM 34.1961 -78.4517 North 389 448 35,000 443 Climbing Washington Center
Wed 06:01:01 PM 34.3114 -78.4306 North 401 461 35,000  Level Washington Center
Wed 06:01:59 PM 34.4139 -78.4114 North 406 467 35,000  Level Washington Center
Wed 06:03:00 PM 34.5378 -78.3881 North 428 493 35,000  Level Washington Center
Wed 06:04:01 PM 34.6653 -78.3697 North 442 509 35,000  Level Washington Center
Wed 06:04:59 PM 34.7911 -78.3461 North 447 514 35,000  Level Washington Center
Wed 06:06:00 PM 34.9275 -78.3128 11° North 447 514 35,000  Level Washington Center
Wed 06:07:01 PM 35.0511 -78.2889 North 452 520 35,000 51 Level Washington Center
Wed 06:07:58 PM 35.1747 -78.2678 North 447 514 35,100 958 Climbing Washington Center
Wed 06:09:00 PM 35.2964 -78.2439 North 447 514 36,900 934 Climbing Washington Center
Wed 06:10:00 PM 35.4022 -78.2243 North  Level FlightAware Approximate
Wed 06:10:00 PM 35.4136 -78.2222 North 441 507 37,000  Level Washington Center
Wed 06:11:00 PM 35.5372 -78.1981 North 441 507 37,000  Level Washington Center
Wed 06:11:59 PM 35.6650 -78.1767 North 447 514 37,000  Level Washington Center
Wed 06:13:00 PM 35.7928 -78.1553 North 453 521 37,000  Level Washington Center
Wed 06:14:00 PM 35.9225 -78.1314 North 458 527 37,000  Level Washington Center
Wed 06:15:01 PM 36.0525 -78.1072 North 469 540 37,000  Level Washington Center
Wed 06:15:59 PM 36.1797 -78.1061 360° North 464 534 37,000  Level Washington Center
Wed 06:17:00 PM 36.3111 -78.1156 357° North 464 534 37,000  Level Washington Center
Wed 06:18:01 PM 36.4339 -78.1244 357° North 459 528 37,000  Level Washington Center
Wed 06:19:01 PM 36.5569 -78.1311 358° North 447 514 37,000  Level Washington Center
Wed 06:19:59 PM 36.6797 -78.1378 358° North 441 507 37,000  Level Washington Center
Wed 06:21:00 PM 36.8053 -78.1314 North 441 507 37,000  Level Washington Center
Wed 06:22:01 PM 36.9289 -78.1069 North 441 507 37,000  Level Washington Center
Wed 06:23:01 PM 37.0461 -78.0769 12° North 441 507 37,000  Level Washington Center
Wed 06:23:59 PM 37.1639 -78.0286 18° North 441 507 37,000  Level Washington Center
Wed 06:24:59 PM 37.2778 -77.9669 23° Northeast 436 502 37,000  Level Washington Center
Wed 06:26:00 PM 37.3917 -77.9053 23° Northeast 442 509 37,000  Level Washington Center
Wed 06:27:00 PM 37.5097 -77.8408 23° Northeast 442 509 37,000  Level Washington Center
Wed 06:28:01 PM 37.6178 -77.7522 33° Northeast 450 518 37,000  Level Washington Center
Wed 06:29:01 PM 37.7217 -77.6581 36° Northeast 455 524 37,000  Level Washington Center
Wed 06:29:59 PM 37.8275 -77.5608 36° Northeast 460 529 37,000  Level Washington Center
Wed 06:30:59 PM 37.9314 -77.4636 36° Northeast 460 529 37,000  Level Washington Center
Wed 06:32:00 PM 38.0158 -77.3867 36° Northeast 460 529 37,000  Level Washington Center
Wed 06:33:01 PM 38.1386 -77.2708 37° Northeast 453 521 37,000  Level Washington Center
Wed 06:33:59 PM 38.2461 -77.1728 36° Northeast 459 528 37,000  Level Washington Center
Wed 06:35:00 PM 38.3456 -77.0794 36° Northeast 459 528 37,000  Level Washington Center
Wed 06:36:01 PM 38.4531 -76.9808 36° Northeast 461 531 37,000  Level Washington Center
Wed 06:37:00 PM 38.5561 -76.8819 37° Northeast 461 531 37,000  Level Washington Center
Wed 06:38:00 PM 38.6594 -76.7881 35° Northeast 456 525 37,000  Level Washington Center
Wed 06:39:01 PM 38.7583 -76.6858 39° Northeast 456 525 37,000 -706 Level Washington Center
Wed 06:39:59 PM 38.8508 -76.5753 43° Northeast 456 525 35,600 -1,831 Descending Washington Center
Wed 06:40:59 PM 38.9436 -76.4697 41° Northeast 445 512 33,400 -2,182 Descending Washington Center
Wed 06:42:00 PM 39.0358 -76.3611 42° Northeast 440 506 31,200 -2,213 Descending Washington Center
Wed 06:43:01 PM 39.1325 -76.2525 41° Northeast 449 517 28,900 -2,067 Descending Washington Center
Wed 06:43:59 PM 39.2206 -76.1517 42° Northeast 454 522 27,100 -958 Descending Washington Center
Wed 06:45:00 PM 39.3147 -76.0394 43° Northeast 454 522 27,000 -248 Descending Washington Center
Wed 06:46:00 PM 39.4069 -75.9300 43° Northeast 454 522 26,600 -650 Descending Washington Center
Wed 06:47:00 PM 39.5008 -75.8175 43° Northeast 454 522 25,700 -942 Descending Washington Center
Wed 06:48:01 PM 39.5947 -75.7100 41° Northeast 454 522 24,700 -1,289 Descending Washington Center
Wed 06:49:01 PM 39.6864 -75.6022 42° Northeast 448 516 23,100 -2,186 Descending Washington Center
Wed 06:49:59 PM 39.7719 -75.4969 43° Northeast 436 502 20,400 -2,695 Descending Washington Center
Wed 06:50:59 PM 39.8531 -75.4022 42° Northeast 412 474 17,800 -2,479 Descending Washington Center
Wed 06:52:00 PM 39.9319 -75.3075 43° Northeast 392 451 15,400 -2,410 Descending Washington Center
Wed 06:53:01 PM 40.0089 -75.2094 44° Northeast 382 440 12,900 -1,545 Descending Washington Center
Wed 06:55:22 PM 40.1833 -74.9833 45° Northeast 317 365 10,200 -1,254 Descending New York TRACON
Wed 06:56:22 PM 40.2500 -74.9167 37° Northeast 281 323 8,700 -1,050 Descending New York TRACON
Wed 06:57:22 PM 40.3000 -74.8500 45° Northeast 272 313 8,100 -800 Descending New York TRACON
Wed 06:58:22 PM 40.3500 -74.7833 45° Northeast 275 316 7,100 -950 Descending New York TRACON
Wed 06:59:22 PM 40.4000 -74.7000 52° Northeast 279 321 6,200 -526 Descending New York TRACON
Wed 07:00:16 PM 40.4500 -74.6667 27° Northeast 275 316 6,100 -50 Descending New York TRACON
Wed 07:01:22 PM 40.5333 -74.6333 17° North 265 305 6,100  Level New York TRACON
Wed 07:02:22 PM 40.6000 -74.6167 11° North 244 281 6,100  Level New York TRACON
Wed 07:03:22 PM 40.6667 -74.6000 11° North 235 270 6,100 -100 Level New York TRACON
Wed 07:04:22 PM 40.7333 -74.5833 11° North 234 269 5,900 -500 Descending New York TRACON
Wed 07:05:22 PM 40.8000 -74.5667 11° North 228 262 5,100 -400 Descending New York TRACON
Wed 07:06:22 PM 40.8500 -74.5500 14° North 220 253 5,100  Level New York TRACON
Wed 07:07:22 PM 40.9000 -74.5167 27° Northeast 244 281 5,100  Level New York TRACON
Wed 07:08:22 PM 40.9333 -74.4333 62° Northeast 241 277 5,100 -95 Level New York TRACON
Wed 07:09:28 PM 40.9333 -74.3500 90° East 205 236 4,900 -500 Descending New York TRACON
Wed 07:10:22 PM 40.9500 -74.2833 72° East 202 232 4,100 -400 Descending New York TRACON
Wed 07:11:28 PM 40.9667 -74.2000 75° East 196 226 4,100  Level New York TRACON
Wed 07:12:28 PM 40.9500 -74.1333 108° East 216 249 4,100 -316 Level New York TRACON
Wed 07:13:22 PM 40.9333 -74.0833 114° Southeast 205 236 3,500 -500 Descending New York TRACON
Wed 07:14:28 PM 40.8667 -74.0500 159° South 196 226 3,100 -286 Descending New York TRACON
Wed 07:15:28 PM 40.8333 -74.0833 217° Southwest 173 199 2,900 -550 Descending New York TRACON
Wed 07:16:28 PM 40.7833 -74.1000 194° South 171 197 2,000 -895 Descending New York TRACON
Wed 07:17:22 PM 40.7500 -74.1333 217° Southwest 159 183 1,200 -889 Descending New York TRACON

Login

Don't have an account? Register now (free) for customized features, flight alerts, and more!